Contact Us:
Email: info@sawbill.com
Phone: (218)663-7150
Fax: (218)663-7980
Mail: 4620 Sawbill Trail
Box 2129
Tofte, MN 55615


Powered by
Movable Type 3.15
 
Sawbill Weather History Archives: September 2008
Current Sawbill Weather History | « August 2008 | October 2008 »


Date

High
Temperature

Low
Temperature

Barometric
Pressure

Relative
Humidity 7AM

9 AM
Temperature

Moisture

Snow

9/30/08 49 39 30.12 82% 40 .08"
9/29/08 54 45 30.00 97% 45 .04"
9/28/08 53 39 30.06 98% 48 .24"
9/27/08 57 38 30.30 92% 39 0
9/26/08 71 55 30.12 98% 56 2.24"
9/25/08 61 41 30.09 90% 55 0
9/24/08 63 41 30.33 87% 42 0
9/23/08 64 48 30.04 97% 52 .78"
9/22/08 63 46 30.21 98% 58 Trace
9/21/08 55 42 30.29 95% 46 0
9/20/08 57 41 30.33 86% 42 0
9/19/08 72 48 30.26 74% 48 .03"
9/18/08 62 49 29.97 92% 58 0
9/17/08 61 43 30.33 98% 49 0
9/16/08 68 48 30.21 92% 48 0
9/15/08 57 36 30.00 96% 49 Trace
9/14/08 54 35 30.12 85% 36 .05"
9/13/08 65 47 29.80 98% 54 .25"
9/12/08 66 45 29.92 93% 47 0
9/11/08 56 52 30.08 98% 53 .96"
9/10/08 60 43 30.29 93% 53 .07"
9/9/08 59 41 30.42 94% 43 0
9/8/08 54 40 30.39 95% 43 0
9/7/08 59 46 30.39 94% 46 .15"
9/6/08 57 41 30.18 98% 46 .07"
9/5/08 59 40 30.18 96% 50 .15"
9/4/08 58 39 30.15 87% 40 0
9/3/08 59 42 30.30 88% 43 .02"
9/2/08 73 48 30.30 95% 48 .32"
9/1/08 78 59 30.09 97% 68 0
 


Home I Trip Planning I Rentals and Outfitting I Reservations I Campgrounds I Sawbill Store I Sawbill News I Contact

© 1997 - 2017, Sawbill Canoe Outfitters, Inc. I Privacy Policy